Terminal Aerodrome Forecast
Issued by NWS

Home | Current Version | Previous Version | Text Only | Print | Product List | Glossary On
Versions: 1 2 3 4 5 6 7 8 9 10 11 12 13 14 15 16 17 18 19 20 21 22 23 24 25 26 27 28 29 30 31 32 33 34 35 36
000
FTUS45 KGJT 280520
TAFEGE
TAF
KEGE 280520Z 2806/2906 26007KT P6SM VCSH BKN050 OVC070
     FM280900 VRB03KT P6SM -RA SCT035 OVC045
     FM281300 VRB03KT P6SM VCSH FEW010 SCT045 OVC070
     FM281900 27008KT P6SM SCT070 BKN090
     FM290200 11004KT P6SM SCT090
      AMD LTD TO CLD VIS AND WIND TIL 281300=

USA.gov is the U.S. government's official web portal to all federal, state and local government web resources and services.